This is the latest recevied weather packets stored in our database for station/object PD2SKZ-12. If no packets are shown the sender has not sent any weather packets the latest 10 day(s).
| Time | Temp. | Humidity | Pressure | Rain* | Wind** | Luminosity | Snow |
|---|---|---|---|---|---|---|---|
| 1777847443 | 13.33° C | 96% | 1012.6 hPa | 0 mm | - | - | - |
| 1777846544 | 13.33° C | 96% | 1012.8 hPa | 0 mm | - | - | - |
| 1777840094 | 14.44° C | 94% | 1012.5 hPa | 0 mm | - | - | - |
| 1777838884 | 14.44° C | 94% | 1012.3 hPa | 0 mm | - | - | - |
| 1777838264 | 14.44° C | 94% | 1012.2 hPa | 0 mm | - | - | - |
| 1777837663 | 14.44° C | 93% | 1012 hPa | 0 mm | - | - | - |
| 1777837364 | 14.44° C | 93% | 1012 hPa | 0 mm | - | - | - |
| 1777836674 | 14.44° C | 93% | 1011.8 hPa | 0 mm | - | - | - |
| 1777835465 | 15° C | 92% | 1011.6 hPa | 0 mm | - | - | - |
| 1777834544 | 15° C | 91% | 1011.4 hPa | 2.03 mm | - | - | - |
| 1777833614 | 15.56° C | 92% | 1011.4 hPa | 2.03 mm | - | - | - |
| 1777833254 | 15.56° C | 92% | 1011.3 hPa | 2.03 mm | - | - | - |
| 1777827104 | 17.22° C | 87% | 1011 hPa | 0 mm | - | - | - |
| 1777825274 | 17.78° C | 85% | 1010.9 hPa | 0 mm | - | - | - |
| 1777824344 | 17.78° C | 84% | 1011.1 hPa | 0 mm | - | - | - |
| 1777819244 | 17.78° C | 86% | 1011.1 hPa | 0 mm | - | - | - |
| 1777817184 | 16.67° C | 88% | 1011.2 hPa | 0 mm | - | - | - |
| 1777816564 | 16.67° C | 89% | 1011.3 hPa | 0 mm | - | - | - |
| 1777812044 | 16.11° C | 90% | 1011.7 hPa | 0 mm | - | - | - |
| 1777805144 | 16.11° C | 94% | 1011.8 hPa | 4.06 mm | - | - | - |
| 1777803045 | 15.56° C | 94% | 1011.8 hPa | 11.94 mm | - | - | - |
| 1777802744 | 15.56° C | 94% | 1011.8 hPa | 13.97 mm | - | - | - |
| 1777802445 | 15.56° C | 94% | 1011.6 hPa | 13.97 mm | - | - | - |
| 1777801564 | 15.56° C | 94% | 1011.8 hPa | 13.97 mm | - | - | - |
| 1777800645 | 15° C | 94% | 1011.8 hPa | 11.94 mm | - | - | - |
* Rain latest hour (hover to see other rain measurements)
** Current wind speed in m/s (hover to see current wind gust speed)